Time;durP1;ratioP1;P1;durP2;ratioP2;P2;SDS_P1;SDS_P2;PMS_P1;PMS_P2;Temp;Humidity;BMP_temperature;BMP_pressure;BME280_temperature;BME280_humidity;BME280_pressure;Samples;Min_cycle;Max_cycle;Signal;HPM_P1;HPM_P2
2021/01/04 00:00:10;;;;;;;2.50;1.50;;;;;;;16.25;53.68;101925.47;4899277;29;20112;-78
2021/01/04 00:02:44;;;;;;;2.42;1.42;;;;;;;16.27;53.77;101928.09;4893554;29;20391;-78
2021/01/04 00:05:19;;;;;;;2.45;1.20;;;;;;;16.27;53.56;101930.69;4903562;29;20476;-78
2021/01/04 00:07:59;;;;;;;2.33;1.50;;;;;;;16.27;53.48;101929.81;4905653;29;20119;-78
2021/01/04 00:10:54;;;;;;;2.80;1.50;;;;;;;16.25;53.83;101922.88;4919259;29;20036;-78
2021/01/04 00:13:47;;;;;;;1.58;1.13;;;;;;;16.25;53.63;101922.88;4919928;29;20052;-78
2021/01/04 00:16:24;;;;;;;2.28;1.38;;;;;;;16.26;53.30;101915.94;4926891;29;20039;-78
2021/01/04 00:19:23;;;;;;;2.97;1.65;;;;;;;16.25;53.37;101912.47;4901354;29;20542;-78
2021/01/04 00:22:29;;;;;;;2.83;1.50;;;;;;;16.25;53.69;101917.66;4900154;29;20492;-78
2021/01/04 00:25:33;;;;;;;2.35;1.40;;;;;;;16.25;53.53;101909.00;4893254;29;20039;-78
2021/01/04 00:28:04;;;;;;;3.63;1.80;;;;;;;16.25;53.70;101916.81;4882120;29;20044;-78
2021/01/04 00:30:57;;;;;;;1.73;1.15;;;;;;;16.24;53.54;101915.03;4911120;29;20495;-78
2021/01/04 00:33:33;;;;;;;3.10;1.37;;;;;;;16.24;53.61;101915.03;4899582;29;20391;-78
2021/01/04 00:36:09;;;;;;;2.45;1.23;;;;;;;16.24;53.45;101918.53;4911787;29;20347;-78
2021/01/04 00:38:56;;;;;;;2.28;1.25;;;;;;;16.22;53.39;101907.25;4910969;29;20471;-78
2021/01/04 00:41:24;;;;;;;1.92;1.40;;;;;;;16.24;53.32;101909.84;4908002;29;20497;-78
2021/01/04 00:43:56;;;;;;;1.85;1.25;;;;;;;16.22;53.47;101902.06;4918720;29;20467;-78
2021/01/04 00:46:31;;;;;;;2.30;1.25;;;;;;;16.21;53.39;101902.91;4901154;29;20035;-78
2021/01/04 00:49:08;;;;;;;2.28;1.20;;;;;;;16.22;53.50;101904.66;4922056;29;20024;-78
2021/01/04 00:51:58;;;;;;;1.90;1.30;;;;;;;16.21;53.41;101902.03;4906710;29;20031;-79
2021/01/04 00:54:32;;;;;;;2.22;1.40;;;;;;;16.21;53.41;101915.88;4898441;29;20028;-78
2021/01/04 00:57:28;;;;;;;2.28;1.38;;;;;;;16.20;53.34;101906.34;4931311;29;20032;-78
2021/01/04 01:00:26;;;;;;;2.50;1.48;;;;;;;16.19;53.38;101899.41;4914137;29;20102;-78
2021/01/04 01:03:06;;;;;;;2.20;0.90;;;;;;;16.20;53.37;101906.34;4901670;29;20114;-78
2021/01/04 01:05:42;;;;;;;2.05;1.30;;;;;;;16.20;53.40;101895.06;4898690;29;20403;-78
2021/01/04 01:08:28;;;;;;;2.38;1.40;;;;;;;16.20;53.21;101898.56;4897834;29;20466;-78
2021/01/04 01:11:19;;;;;;;1.67;1.10;;;;;;;16.19;53.35;101902.00;4921973;29;20463;-79
2021/01/04 01:14:19;;;;;;;1.75;1.20;;;;;;;16.19;53.43;101896.81;4925278;29;20064;-79
2021/01/04 01:17:11;;;;;;;2.00;1.40;;;;;;;16.19;53.10;101895.94;4896840;29;20372;-79
2021/01/04 01:19:50;;;;;;;2.53;1.40;;;;;;;16.18;53.45;101907.19;4924589;29;20118;-78
2021/01/04 01:22:25;;;;;;;2.55;1.30;;;;;;;16.18;53.07;101909.78;4904436;29;20035;-79
2021/01/04 01:24:51;;;;;;;2.17;1.30;;;;;;;16.16;52.98;101896.78;4901343;29;20407;-76
2021/01/04 01:27:41;;;;;;;1.83;1.30;;;;;;;16.17;53.18;101900.25;4906304;29;20036;-78
2021/01/04 01:30:16;;;;;;;2.47;1.10;;;;;;;16.16;53.19;101890.72;4917845;29;20088;-78
2021/01/04 01:32:56;;;;;;;2.72;1.30;;;;;;;16.15;53.11;101896.75;4901059;29;20061;-78
2021/01/04 01:35:27;;;;;;;1.90;1.15;;;;;;;16.15;52.91;101900.22;4916998;29;20032;-78
2021/01/04 01:37:55;;;;;;;2.80;1.40;;;;;;;16.15;53.15;101896.75;4898369;29;20036;-79
2021/01/04 01:40:42;;;;;;;1.83;1.20;;;;;;;16.15;53.30;101899.34;4920231;29;20490;-79
2021/01/04 01:43:17;;;;;;;1.90;1.25;;;;;;;16.15;52.95;101907.13;4905848;29;20039;-79
2021/01/04 01:45:46;;;;;;;3.05;1.38;;;;;;;16.14;53.03;101901.06;4920399;29;20036;-79
2021/01/04 01:48:34;;;;;;;1.92;1.10;;;;;;;16.12;53.07;101902.78;4906989;29;20028;-79
2021/01/04 01:51:12;;;;;;;1.10;0.98;;;;;;;16.13;53.32;101904.50;4917422;29;20042;-79
2021/01/04 01:54:09;;;;;;;2.08;1.30;;;;;;;16.14;53.03;101903.69;4923772;29;20107;-78
2021/01/04 01:57:13;;;;;;;3.03;1.10;;;;;;;16.12;53.06;101905.38;4923053;29;20070;-78
2021/01/04 02:00:22;;;;;;;2.38;1.10;;;;;;;16.11;53.11;101903.63;4881693;29;20127;-78
2021/01/04 02:02:59;;;;;;;1.85;1.13;;;;;;;16.12;53.13;101912.31;4910354;29;20036;-79
2021/01/04 02:06:02;;;;;;;2.80;1.20;;;;;;;16.10;53.11;101903.63;4901428;29;20052;-78
2021/01/04 02:08:31;;;;;;;2.00;1.10;;;;;;;16.11;53.17;101906.22;4901261;29;20024;-79
2021/01/04 02:11:03;;;;;;;1.40;1.00;;;;;;;16.11;52.92;101906.22;4925435;29;20088;-79
2021/01/04 02:13:38;;;;;;;1.83;1.10;;;;;;;16.09;53.01;101904.44;4924635;29;20024;-78
2021/01/04 02:16:16;;;;;;;1.85;1.10;;;;;;;16.11;53.05;101898.41;4918234;29;20028;-79
2021/01/04 02:19:18;;;;;;;1.80;1.10;;;;;;;16.10;53.17;101904.47;4923775;29;20028;-79
2021/01/04 02:21:56;;;;;;;2.38;1.10;;;;;;;16.09;52.79;101904.44;4908010;29;20062;-78
2021/01/04 02:24:26;;;;;;;2.05;1.10;;;;;;;16.09;53.03;101904.44;4922315;29;20036;-78
2021/01/04 02:27:07;;;;;;;1.88;1.38;;;;;;;16.09;53.11;101897.56;4894713;29;20491;-78
2021/01/04 02:29:33;;;;;;;2.15;0.95;;;;;;;16.08;53.03;101894.94;4911172;29;20493;-79
2021/01/04 02:32:02;;;;;;;1.33;0.98;;;;;;;16.08;52.88;101898.38;4911282;29;20032;-78
2021/01/04 02:34:34;;;;;;;2.25;1.00;;;;;;;16.09;52.97;101896.66;4906833;29;20079;-78
2021/01/04 02:37:01;;;;;;;2.00;1.20;;;;;;;16.07;52.72;101893.16;4918645;29;20047;-78
2021/01/04 02:39:26;;;;;;;1.70;1.20;;;;;;;16.05;52.96;101900.97;4903977;29;20062;-78
2021/01/04 02:41:52;;;;;;;1.20;0.90;;;;;;;16.04;52.91;101900.06;4903719;29;20047;-78
2021/01/04 02:44:18;;;;;;;4.45;1.25;;;;;;;16.07;52.70;101898.38;4927182;29;20032;-78
2021/01/04 02:46:47;;;;;;;2.08;1.00;;;;;;;16.06;52.94;101902.69;4914330;29;20040;-78
2021/01/04 02:49:37;;;;;;;1.55;1.20;;;;;;;16.04;53.08;101902.66;4904184;29;20024;-78
2021/01/04 02:52:12;;;;;;;1.98;1.08;;;;;;;16.05;52.79;101900.97;4920472;29;20024;-78
2021/01/04 02:54:50;;;;;;;2.17;1.35;;;;;;;16.05;52.89;101895.75;4918419;29;20059;-78
2021/01/04 02:57:29;;;;;;;1.45;1.10;;;;;;;16.04;52.64;101904.38;4920828;29;20051;-78
2021/01/04 03:00:00;;;;;;;1.60;1.00;;;;;;;16.03;52.84;101900.94;4916652;29;20114;-78
2021/01/04 03:02:36;;;;;;;1.67;1.00;;;;;;;16.04;53.03;101902.66;4921823;29;20027;-78
2021/01/04 03:05:05;;;;;;;1.80;1.25;;;;;;;16.04;52.67;101894.88;4911730;29;20028;-78
2021/01/04 03:07:38;;;;;;;1.45;1.00;;;;;;;16.04;52.70;101894.00;4906423;29;20114;-78
2021/01/04 03:10:34;;;;;;;1.50;1.08;;;;;;;16.04;52.79;101899.19;4934238;29;20028;-78
2021/01/04 03:13:23;;;;;;;1.35;1.10;;;;;;;16.03;52.63;101900.06;4922737;29;20060;-78
2021/01/04 03:15:56;;;;;;;3.70;1.20;;;;;;;16.03;52.73;101900.06;4912149;29;20031;-78
2021/01/04 03:18:35;;;;;;;;;;;;;;;16.05;52.57;101900.97;4907863;29;20028;-78
2021/01/04 03:21:02;;;;;;;2.00;1.20;;;;;;;16.02;52.58;101898.31;4915203;29;19978;-78
2021/01/04 03:23:29;;;;;;;2.28;1.10;;;;;;;16.02;52.89;101901.75;4907165;29;20036;-78
2021/01/04 03:26:10;;;;;;;1.40;1.00;;;;;;;16.02;52.72;101890.50;4909652;29;20483;-78
2021/01/04 03:28:35;;;;;;;1.60;1.00;;;;;;;16.02;52.58;101904.34;4902905;29;20032;-78
2021/01/04 03:31:05;;;;;;;2.00;1.08;;;;;;;16.01;52.53;101899.16;4897232;29;20122;-78
2021/01/04 03:33:31;;;;;;;1.83;1.23;;;;;;;16.01;52.68;101893.97;4922191;29;20083;-78
2021/01/04 03:35:56;;;;;;;1.80;1.35;;;;;;;16.01;52.69;101894.84;4899572;29;20091;-78
2021/01/04 03:38:22;;;;;;;1.55;1.02;;;;;;;16.02;52.57;101895.72;4894868;29;20071;-78
2021/01/04 03:40:48;;;;;;;1.73;1.00;;;;;;;16.02;52.59;101895.72;4918001;29;20035;-78
2021/01/04 03:43:14;;;;;;;1.98;1.10;;;;;;;16.02;52.49;101895.72;4910419;29;20542;-78
2021/01/04 03:45:39;;;;;;;1.88;0.95;;;;;;;16.01;52.78;101896.56;4933344;29;20024;-78
2021/01/04 03:48:05;;;;;;;1.52;1.10;;;;;;;16.00;52.79;101893.13;4922655;29;20118;-78
2021/01/04 03:50:30;;;;;;;1.92;1.00;;;;;;;16.01;52.65;101893.97;4895388;29;20087;-78
2021/01/04 03:52:56;;;;;;;1.48;0.93;;;;;;;16.00;52.53;101889.63;4922158;29;20027;-79
2021/01/04 03:55:21;;;;;;;1.30;0.85;;;;;;;15.99;52.63;101890.47;4890058;29;20130;-78
2021/01/04 03:57:47;;;;;;;1.27;0.85;;;;;;;16.00;52.64;101893.13;4904895;29;20044;-78
2021/01/04 04:00:15;;;;;;;1.70;1.00;;;;;;;15.98;52.44;101891.31;4906235;29;20032;-78
2021/01/04 04:02:42;;;;;;;1.45;1.00;;;;;;;15.99;52.52;101900.88;4918545;29;20091;-78
2021/01/04 04:05:09;;;;;;;2.10;0.90;;;;;;;15.99;52.62;101895.69;4931213;29;20119;-78
2021/01/04 04:07:34;;;;;;;2.08;1.00;;;;;;;15.98;52.33;101887.03;4892738;29;20084;-78
2021/01/04 04:10:00;;;;;;;1.50;1.17;;;;;;;15.99;52.30;101893.09;4899421;29;20032;-77
2021/01/04 04:12:25;;;;;;;1.42;0.80;;;;;;;15.99;52.38;101890.47;4871161;29;20032;-76
2021/01/04 04:14:51;;;;;;;2.40;1.33;;;;;;;15.98;52.65;101884.44;4891739;29;20123;-78
2021/01/04 04:17:17;;;;;;;1.90;1.00;;;;;;;15.98;52.54;101891.31;4903959;29;20036;-78
2021/01/04 04:19:47;;;;;;;1.38;0.82;;;;;;;15.97;52.24;101895.66;4903188;29;20058;-78
2021/01/04 04:22:13;;;;;;;2.20;1.10;;;;;;;15.97;52.46;101894.78;4902903;29;20028;-78
2021/01/04 04:24:40;;;;;;;1.50;1.00;;;;;;;15.96;52.61;101891.31;4920724;29;20024;-78
2021/01/04 04:27:06;;;;;;;2.58;1.10;;;;;;;15.96;52.54;101898.22;4887836;29;20032;-78
2021/01/04 04:29:32;;;;;;;1.40;0.98;;;;;;;15.97;52.50;101900.84;4907324;29;20500;-78
2021/01/04 04:31:57;;;;;;;1.20;0.82;;;;;;;15.96;52.40;101895.63;4875724;29;20074;-78
2021/01/04 04:34:23;;;;;;;1.75;1.02;;;;;;;15.96;52.39;101896.50;4896502;29;20039;-78
2021/01/04 04:36:48;;;;;;;1.65;1.00;;;;;;;15.96;52.47;101903.41;4903307;29;20028;-78
2021/01/04 04:39:15;;;;;;;1.42;1.00;;;;;;;15.95;52.47;101901.66;4889394;29;20040;-78
2021/01/04 04:41:47;;;;;;;0.98;0.80;;;;;;;15.94;52.49;101908.59;4892627;29;20582;-78
2021/01/04 04:44:49;;;;;;;2.05;1.10;;;;;;;15.94;52.34;101903.41;4935982;29;20020;-78
2021/01/04 04:47:32;;;;;;;1.38;0.85;;;;;;;15.95;52.27;101907.72;4921006;29;20028;-78
2021/01/04 04:50:16;;;;;;;1.65;1.10;;;;;;;15.93;52.23;101905.97;4915686;29;20024;-78
2021/01/04 04:52:56;;;;;;;2.03;0.93;;;;;;;15.94;52.36;101910.28;4907085;29;20031;-78
2021/01/04 04:55:33;;;;;;;1.70;1.10;;;;;;;15.94;52.36;101910.28;4927499;29;20526;-78
2021/01/04 04:58:11;;;;;;;1.02;0.90;;;;;;;15.93;52.28;101911.16;4906139;29;20039;-78
2021/01/04 05:01:17;;;;;;;1.25;1.00;;;;;;;15.91;52.29;101905.06;4907862;29;20035;-78
2021/01/04 05:04:09;;;;;;;1.33;1.10;;;;;;;15.91;52.17;101903.34;4915488;29;20060;-78
2021/01/04 05:06:46;;;;;;;1.10;0.90;;;;;;;15.91;52.30;101907.66;4923094;29;20411;-78
2021/01/04 05:09:39;;;;;;;1.20;0.82;;;;;;;15.92;52.36;101907.69;4920128;29;20031;-78
2021/01/04 05:12:17;;;;;;;1.70;1.00;;;;;;;15.91;52.26;101907.66;4916560;29;20032;-78
2021/01/04 05:14:52;;;;;;;1.92;1.13;;;;;;;15.91;52.22;101911.13;4930035;29;20047;-78
2021/01/04 05:17:42;;;;;;;1.48;1.10;;;;;;;15.91;52.13;101920.66;4917936;29;20095;-78
2021/01/04 05:20:23;;;;;;;1.95;0.98;;;;;;;15.91;52.25;101920.66;4922366;29;20031;-78
2021/01/04 05:23:15;;;;;;;1.63;1.08;;;;;;;15.90;52.25;101918.91;4924445;29;20111;-78
2021/01/04 05:25:52;;;;;;;1.30;0.90;;;;;;;15.91;52.18;101918.06;4907910;29;20033;-78
2021/01/04 05:28:18;;;;;;;1.55;1.00;;;;;;;15.90;52.17;101917.19;4916960;29;20056;-78
2021/01/04 05:31:17;;;;;;;1.52;1.00;;;;;;;15.90;52.07;101918.91;4900868;29;20369;-81
2021/01/04 05:33:59;;;;;;;1.73;1.00;;;;;;;15.91;52.37;101910.25;4900551;29;20028;-79
2021/01/04 05:36:25;;;;;;;1.98;1.15;;;;;;;15.90;51.97;101918.91;4911812;29;20056;-79
2021/01/04 05:39:18;;;;;;;1.45;1.00;;;;;;;15.91;52.48;101923.25;4921395;29;20035;-79
2021/01/04 05:42:05;;;;;;;1.60;0.90;;;;;;;15.91;52.23;101920.66;4900257;29;20028;-79
2021/01/04 05:45:07;;;;;;;1.80;1.00;;;;;;;15.93;52.07;101926.75;4918293;29;20035;-78
2021/01/04 05:48:11;;;;;;;1.25;0.82;;;;;;;15.93;52.35;101924.13;4909892;29;20032;-79
2021/01/04 05:51:41;;;;;;;1.20;0.75;;;;;;;15.94;52.40;101934.56;4909612;29;20048;-78
2021/01/04 05:54:07;;;;;;;1.30;1.00;;;;;;;15.95;52.21;101922.44;4847326;29;20143;-78
2021/01/04 05:56:33;;;;;;;1.58;1.00;;;;;;;15.93;52.04;101926.75;5069175;23;20457;-80
2021/01/04 05:59:14;;;;;;;1.88;1.10;;;;;;;15.94;52.18;101929.38;4906249;29;20095;-83
2021/01/04 06:05:21;;;;;;;2.80;1.00;;;;;;;15.93;52.40;101927.59;4927067;29;20051;-82
2021/01/04 06:07:54;;;;;;;2.53;1.05;;;;;;;15.94;52.29;101929.38;4925592;29;20031;-82
2021/01/04 06:10:42;;;;;;;1.33;1.00;;;;;;;15.95;52.26;101932.81;4901713;29;20136;-82
2021/01/04 06:13:12;;;;;;;7.20;1.80;;;;;;;15.94;52.46;101925.88;4884710;29;20043;-80
2021/01/04 06:15:38;;;;;;;9.60;2.58;;;;;;;15.97;52.38;101934.59;4901219;29;20032;-78
2021/01/04 06:18:26;;;;;;;10.32;2.42;;;;;;;16.01;52.91;101920.81;4920138;29;20028;-79
2021/01/04 07:06:36;;;;;;;8.95;2.78;;;;;;;16.38;52.06;101960.28;4963635;23;20031;-81
2021/01/04 07:09:55;;;;;;;5.85;2.70;;;;;;;16.38;52.28;101970.66;4885399;29;20041;-83
2021/01/04 07:16:48;;;;;;;5.70;2.60;;;;;;;16.40;52.20;101973.28;4924862;29;20050;-82
2021/01/04 07:36:10;;;;;;;;;;;;;;;16.47;51.68;101992.44;4936787;29;20068;-81
2021/01/04 07:38:47;;;;;;;4.05;2.03;;;;;;;16.44;51.99;101990.66;4922987;29;19915;-81
2021/01/04 07:41:41;;;;;;;5.03;2.20;;;;;;;16.45;51.88;101992.41;4922528;29;20089;-82
2021/01/04 08:30:24;;;;;;;6.40;2.20;;;;;;;15.47;60.30;102030.63;4980926;23;20039;-83
2021/01/04 08:33:33;;;;;;;4.47;1.63;;;;;;;15.40;59.78;102032.22;4955667;29;20027;-83
2021/01/04 08:50:00;;;;;;;2.80;1.50;;;;;;;15.44;60.10;102051.31;4337605;23;20048;-82
2021/01/04 08:56:21;;;;;;;3.92;1.73;;;;;;;15.46;60.13;102060.00;4956935;28;20107;-82
2021/01/04 09:12:48;;;;;;;2.00;1.07;;;;;;;15.53;60.07;102072.25;4895694;29;20044;-84
2021/01/04 09:15:49;;;;;;;3.50;1.40;;;;;;;15.55;58.06;102072.28;4882749;29;20035;-82
2021/01/04 09:18:48;;;;;;;4.18;1.55;;;;;;;15.39;67.02;102069.38;4864557;29;20508;-78
2021/01/04 09:21:37;;;;;;;4.50;1.50;;;;;;;15.40;68.41;102091.88;4878581;29;20049;-79
2021/01/04 09:24:23;;;;;;;2.35;1.38;;;;;;;15.31;69.24;102077.84;4844890;29;20585;-79
2021/01/04 09:26:57;;;;;;;4.00;1.40;;;;;;;15.20;68.00;102078.53;4860278;29;20045;-79
2021/01/04 09:29:26;;;;;;;3.75;1.25;;;;;;;15.24;66.07;102084.63;4848360;29;20029;-78
2021/01/04 09:32:15;;;;;;;1.90;1.20;;;;;;;15.18;68.52;102089.72;4865768;29;20386;-78
2021/01/04 09:34:40;;;;;;;2.53;1.38;;;;;;;15.14;68.80;102086.19;4878027;29;20436;-78
2021/01/04 09:37:11;;;;;;;2.47;1.30;;;;;;;15.15;67.99;102092.22;4877748;29;20047;-78
2021/01/04 09:39:39;;;;;;;2.15;1.17;;;;;;;15.17;69.58;102094.00;4861352;29;20369;-79
2021/01/04 09:42:13;;;;;;;2.58;1.45;;;;;;;15.18;69.11;102087.13;4879024;29;20033;-79
2021/01/04 09:44:38;;;;;;;2.42;0.93;;;;;;;15.18;68.75;102087.13;4909150;29;20082;-79
2021/01/04 09:47:10;;;;;;;3.28;1.70;;;;;;;15.15;69.46;102089.63;4904202;29;20043;-78
2021/01/04 09:49:47;;;;;;;2.55;1.27;;;;;;;15.16;69.63;102094.00;4919334;29;20030;-79
2021/01/04 09:52:23;;;;;;;2.60;1.40;;;;;;;15.20;67.97;102090.63;4919337;29;20087;-79
2021/01/04 09:54:53;;;;;;;2.45;1.15;;;;;;;15.22;69.44;102096.69;4919319;29;20031;-79
2021/01/04 09:57:20;;;;;;;2.85;1.40;;;;;;;15.20;69.77;102094.09;4936698;29;20094;-79
2021/01/04 09:59:47;;;;;;;2.08;1.20;;;;;;;15.18;69.36;102094.91;4936102;29;20023;-79
2021/01/04 10:02:32;;;;;;;2.55;1.23;;;;;;;15.14;68.85;102098.28;4919293;29;20027;-78
2021/01/04 10:05:10;;;;;;;1.65;1.13;;;;;;;15.14;69.48;102104.31;4919517;29;20024;-79
2021/01/04 10:07:36;;;;;;;1.80;1.20;;;;;;;15.11;69.78;102104.28;4919338;29;20031;-79
2021/01/04 10:10:09;;;;;;;2.08;1.30;;;;;;;15.14;69.64;102108.66;4903525;29;20047;-79
2021/01/04 10:12:34;;;;;;;3.03;1.40;;;;;;;15.10;70.81;102105.09;4936203;29;20193;-79
2021/01/04 10:15:02;;;;;;;1.83;1.20;;;;;;;15.06;70.93;102098.09;4903096;29;20119;-79
2021/01/04 10:17:38;;;;;;;2.22;1.40;;;;;;;15.11;70.08;102103.38;4916525;29;20130;-79
2021/01/04 10:20:30;;;;;;;3.63;1.45;;;;;;;15.13;70.27;102101.69;4919280;29;20027;-79
2021/01/04 10:23:00;;;;;;;3.15;1.15;;;;;;;15.14;70.48;102104.31;4906657;29;20439;-78
2021/01/04 10:25:56;;;;;;;2.58;1.30;;;;;;;15.10;69.71;102099.91;4937283;29;20483;-79
2021/01/04 10:28:21;;;;;;;1.73;1.20;;;;;;;15.08;70.77;102100.72;4909961;29;20044;-79
2021/01/04 10:30:47;;;;;;;1.88;1.10;;;;;;;15.11;70.23;102099.09;4918725;29;20436;-79
2021/01/04 10:33:28;;;;;;;2.30;1.27;;;;;;;15.10;69.47;102102.50;4901509;29;20388;-79
2021/01/04 10:36:05;;;;;;;1.73;1.10;;;;;;;15.12;69.72;102097.38;4901014;29;20028;-79
2021/01/04 10:38:32;;;;;;;2.05;1.23;;;;;;;15.09;70.24;102102.47;4900545;29;20031;-79
2021/01/04 10:40:57;;;;;;;2.15;1.20;;;;;;;15.12;69.93;102105.16;4909552;29;20111;-79
2021/01/04 10:43:25;;;;;;;1.55;1.23;;;;;;;15.11;69.84;102104.28;4937883;29;20035;-79
2021/01/04 10:45:54;;;;;;;1.85;1.20;;;;;;;15.08;70.75;102104.19;4919890;29;20517;-79
2021/01/04 10:48:23;;;;;;;2.67;1.30;;;;;;;15.08;69.97;102111.09;4904117;29;20082;-79
2021/01/04 10:50:54;;;;;;;2.53;1.20;;;;;;;15.11;70.32;102114.66;4900116;29;20119;-79
2021/01/04 10:53:35;;;;;;;2.58;1.30;;;;;;;15.10;70.17;102107.69;4926363;29;20027;-79
2021/01/04 10:56:09;;;;;;;1.60;1.10;;;;;;;15.11;69.30;102109.47;4910975;29;20031;-79
2021/01/04 10:58:49;;;;;;;2.03;1.15;;;;;;;15.12;69.68;102099.97;4918928;29;20087;-78
2021/01/04 11:01:21;;;;;;;2.15;1.10;;;;;;;15.10;69.94;102102.50;4936525;29;20110;-79
2021/01/04 11:03:58;;;;;;;1.38;1.10;;;;;;;15.11;69.36;102099.09;4918897;29;20015;-79
2021/01/04 11:06:26;;;;;;;2.38;1.20;;;;;;;15.06;70.15;102092.91;4918076;29;20032;-79
2021/01/04 11:08:52;;;;;;;1.80;1.00;;;;;;;15.09;69.58;102094.69;4935164;29;20044;-79
2021/01/04 11:11:36;;;;;;;1.90;1.17;;;;;;;15.08;69.38;102099.00;4901658;29;20091;-79
2021/01/04 11:14:23;;;;;;;3.05;1.40;;;;;;;15.10;69.71;102086.97;4896718;29;20080;-79
2021/01/04 11:17:07;;;;;;;3.03;1.10;;;;;;;15.10;69.47;102092.13;4901438;29;20059;-79
2021/01/04 11:19:33;;;;;;;;;;;;;;;15.11;69.08;102091.31;4913724;29;20114;-79
2021/01/04 11:22:28;;;;;;;2.15;1.27;;;;;;;15.11;69.36;102082.63;4910946;29;19910;-79
2021/01/04 11:24:55;;;;;;;1.80;1.08;;;;;;;15.12;68.52;102082.69;4885206;29;20140;-78
2021/01/04 11:27:22;;;;;;;2.22;1.17;;;;;;;15.14;68.84;102080.13;4911017;29;20115;-79
2021/01/04 11:29:48;;;;;;;2.15;1.10;;;;;;;15.13;68.98;102073.19;4920848;29;20024;-79
2021/01/04 11:32:15;;;;;;;1.38;0.95;;;;;;;15.16;68.45;102076.72;4894372;29;20535;-79
2021/01/04 11:34:49;;;;;;;2.50;1.00;;;;;;;15.16;68.89;102078.44;4914965;29;20492;-79
2021/01/04 11:37:16;;;;;;;1.95;1.10;;;;;;;15.15;69.20;102077.53;4908856;29;20110;-79
2021/01/04 11:39:41;;;;;;;1.60;0.95;;;;;;;15.15;68.90;102079.28;4876462;29;20036;-79
2021/01/04 11:42:07;;;;;;;2.13;1.23;;;;;;;15.14;69.58;102070.63;4880222;29;20061;-79
2021/01/04 11:44:36;;;;;;;1.52;0.95;;;;;;;15.19;68.66;102068.13;4931231;29;20039;-79
2021/01/04 11:47:03;;;;;;;2.13;1.13;;;;;;;15.19;68.74;102074.16;4907248;29;20063;-79
2021/01/04 11:49:29;;;;;;;1.98;1.08;;;;;;;15.18;68.16;102066.38;4885596;29;20040;-79
2021/01/04 11:51:55;;;;;;;2.03;1.02;;;;;;;15.19;69.09;102060.34;4901281;29;20035;-80
2021/01/04 11:54:20;;;;;;;1.48;1.00;;;;;;;15.18;68.44;102062.06;4924292;29;20032;-80
2021/01/04 11:56:47;;;;;;;1.70;0.90;;;;;;;15.20;68.26;102065.56;4912598;29;20613;-80
2021/01/04 11:59:13;;;;;;;2.63;1.10;;;;;;;15.22;68.22;102057.78;4913992;29;20036;-80
2021/01/04 12:01:38;;;;;;;1.42;0.95;;;;;;;15.25;67.69;102060.47;4889232;29;20036;-80
2021/01/04 12:04:05;;;;;;;1.67;1.10;;;;;;;15.21;68.24;102056.06;4915225;29;20115;-80
2021/01/04 12:06:30;;;;;;;2.65;1.08;;;;;;;15.21;67.86;102056.06;4920806;29;20032;-79
2021/01/04 12:08:56;;;;;;;1.55;0.90;;;;;;;15.23;67.51;102057.84;4906343;29;20071;-79
2021/01/04 12:11:21;;;;;;;1.65;1.10;;;;;;;15.25;67.53;102057.88;4902155;29;20487;-79
2021/01/04 12:13:48;;;;;;;1.10;0.82;;;;;;;15.23;67.95;102056.97;4917983;29;20035;-79
2021/01/04 12:16:14;;;;;;;1.80;0.95;;;;;;;15.23;67.60;102051.78;4901093;29;20036;-79
2021/01/04 12:18:40;;;;;;;1.92;1.10;;;;;;;15.23;67.21;102057.84;4900732;29;20398;-79
2021/01/04 12:21:05;;;;;;;1.67;0.90;;;;;;;15.25;67.36;102057.88;4900690;29;20044;-79
2021/01/04 12:23:30;;;;;;;1.73;1.08;;;;;;;15.25;67.51;102059.59;4917829;29;20399;-79
2021/01/04 12:25:56;;;;;;;1.35;1.00;;;;;;;15.25;67.21;102052.69;4902199;29;20392;-79
2021/01/04 12:28:21;;;;;;;1.52;0.90;;;;;;;15.23;66.21;102051.78;4898995;29;20032;-79
2021/01/04 12:30:46;;;;;;;1.05;0.80;;;;;;;15.27;66.93;102045.81;4902505;29;20036;-79
2021/01/04 12:33:12;;;;;;;1.50;0.93;;;;;;;15.25;67.00;102041.44;4918204;29;20035;-79
2021/01/04 12:35:37;;;;;;;1.17;0.90;;;;;;;15.29;67.76;102040.66;4902147;29;20081;-79
2021/01/04 12:38:03;;;;;;;1.38;0.93;;;;;;;15.30;66.73;102043.25;4902054;29;20036;-79
2021/01/04 12:40:31;;;;;;;4.22;0.85;;;;;;;15.31;64.92;102036.34;4917157;29;20035;-79
2021/01/04 12:43:03;;;;;;;1.48;0.90;;;;;;;15.32;66.43;102043.31;4898370;29;20110;-80
2021/01/04 12:45:31;;;;;;;2.13;1.00;;;;;;;15.33;66.57;102034.66;4902882;29;20490;-79
2021/01/04 12:47:56;;;;;;;1.30;0.80;;;;;;;15.40;65.86;102033.97;4911141;29;20464;-79
2021/01/04 12:50:22;;;;;;;2.00;0.93;;;;;;;15.42;65.02;102033.13;4917396;29;20083;-79
2021/01/04 12:52:49;;;;;;;1.08;0.80;;;;;;;15.39;66.00;102032.19;4917563;29;20032;-79
2021/01/04 12:55:17;;;;;;;2.25;0.77;;;;;;;15.44;64.71;102020.19;4886866;29;20028;-79
2021/01/04 12:57:42;;;;;;;1.00;0.70;;;;;;;15.45;64.78;102031.44;4918671;29;20379;-79
2021/01/04 13:00:08;;;;;;;4.10;0.80;;;;;;;15.49;64.40;102021.16;4901697;29;20032;-79
2021/01/04 13:02:33;;;;;;;1.00;0.70;;;;;;;15.45;64.15;102021.06;4898490;29;20036;-79
2021/01/04 13:04:59;;;;;;;1.30;0.75;;;;;;;15.46;64.42;102018.50;4893536;29;20031;-79
2021/01/04 13:07:24;;;;;;;1.17;0.70;;;;;;;15.51;64.58;102021.19;4917217;29;20480;-80
2021/01/04 13:09:51;;;;;;;1.50;0.80;;;;;;;15.51;63.16;102016.84;4890055;29;20052;-79
2021/01/04 13:12:17;;;;;;;1.05;0.70;;;;;;;15.50;64.41;102017.69;4908231;29;20506;-80
2021/01/04 13:14:46;;;;;;;2.45;0.80;;;;;;;15.54;63.38;102023.81;4906412;29;20043;-80
2021/01/04 13:17:12;;;;;;;0.90;0.70;;;;;;;15.53;64.37;102017.75;4937129;29;20031;-80
2021/01/04 13:19:38;;;;;;;1.27;0.65;;;;;;;15.52;64.46;102016.00;4886484;29;20032;-80
2021/01/04 13:22:03;;;;;;;1.58;0.90;;;;;;;15.54;64.38;102011.72;4932303;29;20459;-80
2021/01/04 13:24:29;;;;;;;1.30;0.70;;;;;;;15.62;63.05;102027.44;4927904;29;20364;-80
2021/01/04 13:26:56;;;;;;;1.13;0.70;;;;;;;15.61;63.10;102023.06;4896263;29;20435;-80
2021/01/04 13:29:26;;;;;;;1.45;0.70;;;;;;;15.60;62.93;102022.22;4922577;29;20040;-80
2021/01/04 13:31:53;;;;;;;1.20;0.70;;;;;;;15.62;62.86;102027.44;4916969;29;20031;-81
2021/01/04 13:34:19;;;;;;;0.98;0.63;;;;;;;15.62;63.28;102020.50;4936342;29;20466;-80
2021/01/04 13:36:48;;;;;;;1.48;0.60;;;;;;;15.60;63.70;102016.16;4919844;29;20118;-80
2021/01/04 13:39:14;;;;;;;1.38;0.77;;;;;;;15.65;62.31;102019.69;4901013;29;20031;-80
2021/01/04 13:41:40;;;;;;;2.70;0.70;;;;;;;15.70;61.87;102023.25;4934637;29;20023;-80
2021/01/04 13:44:05;;;;;;;2.55;0.60;;;;;;;15.66;62.54;102026.63;4918389;29;20034;-79
2021/01/04 13:46:32;;;;;;;1.15;0.70;;;;;;;15.68;61.89;102024.94;4915160;29;20041;-80
2021/01/04 13:49:01;;;;;;;2.30;0.75;;;;;;;15.71;62.36;102024.13;4900512;29;20036;-81
2021/01/04 13:51:26;;;;;;;0.80;0.60;;;;;;;15.70;62.68;102030.16;4900104;29;20028;-80
2021/01/04 13:53:52;;;;;;;1.05;0.65;;;;;;;15.68;62.65;102030.13;4915770;29;22281;-80
2021/01/04 13:56:18;;;;;;;1.58;0.60;;;;;;;15.72;61.90;102029.38;4919556;29;20031;-80
2021/01/04 13:58:45;;;;;;;0.88;0.60;;;;;;;15.71;62.82;102026.72;4903459;29;20031;-80
2021/01/04 14:01:13;;;;;;;0.82;0.50;;;;;;;15.69;62.38;102024.09;4918912;29;20035;-80
2021/01/04 14:03:39;;;;;;;1.45;0.70;;;;;;;15.74;61.58;102021.59;4903380;29;20028;-80
2021/01/04 14:06:04;;;;;;;1.00;0.60;;;;;;;15.74;61.46;102025.09;4902891;29;20546;-80
2021/01/04 14:08:29;;;;;;;1.00;0.70;;;;;;;15.75;61.79;102026.81;4887267;29;20043;-80
2021/01/04 14:10:55;;;;;;;1.10;0.60;;;;;;;15.76;61.80;102033.75;4903544;29;20478;-80
2021/01/04 14:13:21;;;;;;;2.08;0.57;;;;;;;15.80;61.08;102029.50;4902738;29;20055;-80
2021/01/04 14:15:47;;;;;;;0.80;0.70;;;;;;;15.81;60.86;102032.13;4903282;29;20039;-80
2021/01/04 14:18:13;;;;;;;1.25;0.60;;;;;;;15.79;61.51;102027.75;4922981;29;20043;-80
2021/01/04 14:20:39;;;;;;;1.55;0.70;;;;;;;15.81;60.76;102026.94;4930056;29;20370;-80
2021/01/04 14:23:04;;;;;;;1.67;0.68;;;;;;;15.79;61.29;102033.81;4889806;29;20035;-80
2021/01/04 14:25:30;;;;;;;1.05;0.60;;;;;;;15.77;61.33;102025.13;4919293;29;20042;-81
2021/01/04 14:27:56;;;;;;;1.65;0.50;;;;;;;15.80;61.21;102025.16;4918574;29;20493;-81